sensor_id;sensor_type;location;lat;lon;timestamp;temperature;humidity
33594;DHT22;19920;52.242;20.940;2024-01-27T00:00:38;5.00;99.90
33594;DHT22;19920;52.242;20.940;2024-01-27T00:03:03;5.00;99.90
33594;DHT22;19920;52.242;20.940;2024-01-27T00:05:29;5.00;99.90
33594;DHT22;19920;52.242;20.940;2024-01-27T00:07:54;4.90;99.90
33594;DHT22;19920;52.242;20.940;2024-01-27T00:10:20;5.00;99.90
33594;DHT22;19920;52.242;20.940;2024-01-27T00:12:45;4.90;99.90
33594;DHT22;19920;52.242;20.940;2024-01-27T00:15:11;4.90;99.90
33594;DHT22;19920;52.242;20.940;2024-01-27T00:17:37;5.00;99.90
33594;DHT22;19920;52.242;20.940;2024-01-27T00:20:02;4.90;99.90
33594;DHT22;19920;52.242;20.940;2024-01-27T00:22:28;4.90;99.90
33594;DHT22;19920;52.242;20.940;2024-01-27T00:24:54;4.90;99.90
33594;DHT22;19920;52.242;20.940;2024-01-27T00:27:19;4.90;99.90
33594;DHT22;19920;52.242;20.940;2024-01-27T00:29:45;4.90;99.90
33594;DHT22;19920;52.242;20.940;2024-01-27T00:32:11;4.90;99.90
33594;DHT22;19920;52.242;20.940;2024-01-27T00:34:36;4.90;99.90
33594;DHT22;19920;52.242;20.940;2024-01-27T00:37:02;4.90;99.90
33594;DHT22;19920;52.242;20.940;2024-01-27T00:39:27;4.90;99.90
33594;DHT22;19920;52.242;20.940;2024-01-27T00:41:53;4.80;99.90
33594;DHT22;19920;52.242;20.940;2024-01-27T00:44:20;4.80;99.90
33594;DHT22;19920;52.242;20.940;2024-01-27T00:46:46;4.80;99.90
33594;DHT22;19920;52.242;20.940;2024-01-27T00:49:12;4.80;99.90
33594;DHT22;19920;52.242;20.940;2024-01-27T00:51:37;4.80;99.90
33594;DHT22;19920;52.242;20.940;2024-01-27T00:54:03;4.80;99.90
33594;DHT22;19920;52.242;20.940;2024-01-27T00:56:28;4.70;99.90
33594;DHT22;19920;52.242;20.940;2024-01-27T00:58:54;4.70;99.90
33594;DHT22;19920;52.242;20.940;2024-01-27T01:01:19;4.70;99.90
33594;DHT22;19920;52.242;20.940;2024-01-27T01:03:45;4.70;99.90
33594;DHT22;19920;52.242;20.940;2024-01-27T01:06:11;4.70;99.90
33594;DHT22;19920;52.242;20.940;2024-01-27T01:08:36;4.60;99.90
33594;DHT22;19920;52.242;20.940;2024-01-27T01:11:02;4.70;99.90
33594;DHT22;19920;52.242;20.940;2024-01-27T01:13:27;4.70;99.90
33594;DHT22;19920;52.242;20.940;2024-01-27T01:15:53;4.70;99.90
33594;DHT22;19920;52.242;20.940;2024-01-27T01:18:19;4.70;99.90
33594;DHT22;19920;52.242;20.940;2024-01-27T01:20:44;4.60;99.90
33594;DHT22;19920;52.242;20.940;2024-01-27T01:23:10;4.60;99.90
33594;DHT22;19920;52.242;20.940;2024-01-27T01:25:35;4.60;99.90
33594;DHT22;19920;52.242;20.940;2024-01-27T01:28:01;4.60;99.90
33594;DHT22;19920;52.242;20.940;2024-01-27T01:30:26;4.60;99.90
33594;DHT22;19920;52.242;20.940;2024-01-27T01:32:52;4.60;99.90
33594;DHT22;19920;52.242;20.940;2024-01-27T01:35:17;4.60;99.90
33594;DHT22;19920;52.242;20.940;2024-01-27T01:37:43;4.50;99.90
33594;DHT22;19920;52.242;20.940;2024-01-27T01:40:09;4.50;99.90
33594;DHT22;19920;52.242;20.940;2024-01-27T01:42:35;4.60;99.90
33594;DHT22;19920;52.242;20.940;2024-01-27T01:45:00;4.60;99.90
33594;DHT22;19920;52.242;20.940;2024-01-27T01:47:26;4.60;99.90
33594;DHT22;19920;52.242;20.940;2024-01-27T01:49:52;4.60;99.90
33594;DHT22;19920;52.242;20.940;2024-01-27T01:52:18;4.60;99.90
33594;DHT22;19920;52.242;20.940;2024-01-27T01:54:49;4.60;99.90
33594;DHT22;19920;52.242;20.940;2024-01-27T01:57:16;4.60;99.90
33594;DHT22;19920;52.242;20.940;2024-01-27T01:59:42;4.60;99.90
33594;DHT22;19920;52.242;20.940;2024-01-27T02:02:10;4.60;99.90
33594;DHT22;19920;52.242;20.940;2024-01-27T02:04:40;4.60;99.90
33594;DHT22;19920;52.242;20.940;2024-01-27T02:07:06;4.60;99.90
33594;DHT22;19920;52.242;20.940;2024-01-27T02:09:31;4.60;99.90
33594;DHT22;19920;52.242;20.940;2024-01-27T02:11:57;4.60;99.90
33594;DHT22;19920;52.242;20.940;2024-01-27T02:14:22;4.60;99.90
33594;DHT22;19920;52.242;20.940;2024-01-27T02:16:50;4.60;99.90
33594;DHT22;19920;52.242;20.940;2024-01-27T02:19:16;4.60;99.90
33594;DHT22;19920;52.242;20.940;2024-01-27T02:21:41;4.70;99.90
33594;DHT22;19920;52.242;20.940;2024-01-27T02:24:07;4.70;99.90
33594;DHT22;19920;52.242;20.940;2024-01-27T02:26:33;4.70;99.90
33594;DHT22;19920;52.242;20.940;2024-01-27T02:28:58;4.70;99.90
33594;DHT22;19920;52.242;20.940;2024-01-27T02:31:24;4.70;99.90
33594;DHT22;19920;52.242;20.940;2024-01-27T02:33:50;4.70;99.90
33594;DHT22;19920;52.242;20.940;2024-01-27T02:36:15;4.70;99.90
33594;DHT22;19920;52.242;20.940;2024-01-27T02:38:41;4.70;99.90
33594;DHT22;19920;52.242;20.940;2024-01-27T02:41:06;4.70;99.90
33594;DHT22;19920;52.242;20.940;2024-01-27T02:43:32;4.70;99.90
33594;DHT22;19920;52.242;20.940;2024-01-27T02:45:57;4.70;99.90
33594;DHT22;19920;52.242;20.940;2024-01-27T02:48:23;4.70;99.90
33594;DHT22;19920;52.242;20.940;2024-01-27T02:50:48;4.70;99.90
33594;DHT22;19920;52.242;20.940;2024-01-27T02:53:14;4.70;99.90
33594;DHT22;19920;52.242;20.940;2024-01-27T02:55:39;4.70;99.90
33594;DHT22;19920;52.242;20.940;2024-01-27T02:58:05;4.70;99.90
33594;DHT22;19920;52.242;20.940;2024-01-27T03:00:31;4.70;99.90
33594;DHT22;19920;52.242;20.940;2024-01-27T03:02:56;4.70;99.90
33594;DHT22;19920;52.242;20.940;2024-01-27T03:05:23;4.70;99.90
33594;DHT22;19920;52.242;20.940;2024-01-27T03:07:49;4.70;99.90
33594;DHT22;19920;52.242;20.940;2024-01-27T03:10:15;4.70;99.90
33594;DHT22;19920;52.242;20.940;2024-01-27T03:12:40;4.70;99.90
33594;DHT22;19920;52.242;20.940;2024-01-27T03:15:06;4.60;99.90
33594;DHT22;19920;52.242;20.940;2024-01-27T03:17:31;4.60;99.90
33594;DHT22;19920;52.242;20.940;2024-01-27T03:19:57;4.70;99.90
33594;DHT22;19920;52.242;20.940;2024-01-27T03:22:22;4.70;99.90
33594;DHT22;19920;52.242;20.940;2024-01-27T03:24:48;4.70;99.90
33594;DHT22;19920;52.242;20.940;2024-01-27T03:27:14;4.70;99.90
33594;DHT22;19920;52.242;20.940;2024-01-27T03:29:39;4.70;99.90
33594;DHT22;19920;52.242;20.940;2024-01-27T03:32:05;4.60;99.90
33594;DHT22;19920;52.242;20.940;2024-01-27T03:34:30;4.70;99.90
33594;DHT22;19920;52.242;20.940;2024-01-27T03:36:56;4.70;99.90
33594;DHT22;19920;52.242;20.940;2024-01-27T03:39:21;4.60;99.90
33594;DHT22;19920;52.242;20.940;2024-01-27T03:41:47;4.60;99.90
33594;DHT22;19920;52.242;20.940;2024-01-27T03:44:13;4.60;99.90
33594;DHT22;19920;52.242;20.940;2024-01-27T03:46:38;4.60;99.90
33594;DHT22;19920;52.242;20.940;2024-01-27T03:49:04;4.60;99.90
33594;DHT22;19920;52.242;20.940;2024-01-27T03:51:30;4.60;99.90
33594;DHT22;19920;52.242;20.940;2024-01-27T03:53:56;4.60;99.90
33594;DHT22;19920;52.242;20.940;2024-01-27T03:56:21;4.70;99.90
33594;DHT22;19920;52.242;20.940;2024-01-27T03:58:47;4.70;99.90
33594;DHT22;19920;52.242;20.940;2024-01-27T04:01:12;4.70;99.90
33594;DHT22;19920;52.242;20.940;2024-01-27T04:03:38;4.70;99.90
33594;DHT22;19920;52.242;20.940;2024-01-27T04:06:04;4.70;99.90
33594;DHT22;19920;52.242;20.940;2024-01-27T04:08:30;4.70;99.90
33594;DHT22;19920;52.242;20.940;2024-01-27T04:10:56;4.70;99.90
33594;DHT22;19920;52.242;20.940;2024-01-27T04:13:24;4.70;99.90
33594;DHT22;19920;52.242;20.940;2024-01-27T04:15:50;4.60;99.90
33594;DHT22;19920;52.242;20.940;2024-01-27T04:18:16;4.60;99.90
33594;DHT22;19920;52.242;20.940;2024-01-27T04:20:42;4.60;99.90
33594;DHT22;19920;52.242;20.940;2024-01-27T04:23:08;4.60;99.90
33594;DHT22;19920;52.242;20.940;2024-01-27T04:25:33;4.60;99.90
33594;DHT22;19920;52.242;20.940;2024-01-27T04:27:59;4.60;99.90
33594;DHT22;19920;52.242;20.940;2024-01-27T04:30:24;4.60;99.90
33594;DHT22;19920;52.242;20.940;2024-01-27T04:32:50;4.60;99.90
33594;DHT22;19920;52.242;20.940;2024-01-27T04:35:17;4.60;99.90
33594;DHT22;19920;52.242;20.940;2024-01-27T04:37:43;4.60;99.90
33594;DHT22;19920;52.242;20.940;2024-01-27T04:40:10;4.70;99.90
33594;DHT22;19920;52.242;20.940;2024-01-27T04:42:38;4.60;99.90
33594;DHT22;19920;52.242;20.940;2024-01-27T04:45:04;4.60;99.90
33594;DHT22;19920;52.242;20.940;2024-01-27T04:47:31;4.50;99.90
33594;DHT22;19920;52.242;20.940;2024-01-27T04:49:56;4.50;99.90
33594;DHT22;19920;52.242;20.940;2024-01-27T04:52:23;4.50;99.90
33594;DHT22;19920;52.242;20.940;2024-01-27T04:54:48;4.50;99.90
33594;DHT22;19920;52.242;20.940;2024-01-27T04:57:14;4.50;99.90
33594;DHT22;19920;52.242;20.940;2024-01-27T04:59:39;4.40;99.90
33594;DHT22;19920;52.242;20.940;2024-01-27T05:02:06;4.40;99.90
33594;DHT22;19920;52.242;20.940;2024-01-27T05:04:32;4.40;99.90
33594;DHT22;19920;52.242;20.940;2024-01-27T05:06:58;4.40;99.90
33594;DHT22;19920;52.242;20.940;2024-01-27T05:09:23;4.40;99.90
33594;DHT22;19920;52.242;20.940;2024-01-27T05:11:49;4.30;99.90
33594;DHT22;19920;52.242;20.940;2024-01-27T05:14:18;4.30;99.90
33594;DHT22;19920;52.242;20.940;2024-01-27T05:16:43;4.30;99.90
33594;DHT22;19920;52.242;20.940;2024-01-27T05:19:10;4.30;99.90
33594;DHT22;19920;52.242;20.940;2024-01-27T05:21:36;4.30;99.90
33594;DHT22;19920;52.242;20.940;2024-01-27T05:24:01;4.30;99.90
33594;DHT22;19920;52.242;20.940;2024-01-27T05:26:27;4.30;99.90
33594;DHT22;19920;52.242;20.940;2024-01-27T05:28:52;4.40;99.90
33594;DHT22;19920;52.242;20.940;2024-01-27T05:31:18;4.40;99.90
33594;DHT22;19920;52.242;20.940;2024-01-27T05:33:44;4.40;99.90
33594;DHT22;19920;52.242;20.940;2024-01-27T05:36:09;4.40;99.90
33594;DHT22;19920;52.242;20.940;2024-01-27T05:38:35;4.40;99.90
33594;DHT22;19920;52.242;20.940;2024-01-27T05:41:01;4.20;99.90
33594;DHT22;19920;52.242;20.940;2024-01-27T05:43:27;4.20;99.90
33594;DHT22;19920;52.242;20.940;2024-01-27T05:45:53;4.30;99.90
33594;DHT22;19920;52.242;20.940;2024-01-27T05:48:19;4.30;99.90
33594;DHT22;19920;52.242;20.940;2024-01-27T05:50:55;4.30;99.90
33594;DHT22;19920;52.242;20.940;2024-01-27T05:53:21;4.30;99.90
33594;DHT22;19920;52.242;20.940;2024-01-27T05:55:47;4.30;99.90
33594;DHT22;19920;52.242;20.940;2024-01-27T05:58:13;4.30;99.90
33594;DHT22;19920;52.242;20.940;2024-01-27T06:00:38;4.40;99.90
33594;DHT22;19920;52.242;20.940;2024-01-27T06:03:04;4.40;99.90
33594;DHT22;19920;52.242;20.940;2024-01-27T06:05:30;4.50;99.90
33594;DHT22;19920;52.242;20.940;2024-01-27T06:07:55;4.50;99.90
33594;DHT22;19920;52.242;20.940;2024-01-27T06:10:21;4.50;99.90
33594;DHT22;19920;52.242;20.940;2024-01-27T06:12:47;4.60;99.90
33594;DHT22;19920;52.242;20.940;2024-01-27T06:15:13;4.60;99.90
33594;DHT22;19920;52.242;20.940;2024-01-27T06:17:40;4.60;99.90
33594;DHT22;19920;52.242;20.940;2024-01-27T06:20:06;4.60;99.90
33594;DHT22;19920;52.242;20.940;2024-01-27T06:22:32;4.50;99.90
33594;DHT22;19920;52.242;20.940;2024-01-27T06:24:58;4.50;99.90
33594;DHT22;19920;52.242;20.940;2024-01-27T06:27:24;4.40;99.90
33594;DHT22;19920;52.242;20.940;2024-01-27T06:29:49;4.40;99.90
33594;DHT22;19920;52.242;20.940;2024-01-27T06:32:15;4.40;99.90
33594;DHT22;19920;52.242;20.940;2024-01-27T06:34:41;4.30;99.90
33594;DHT22;19920;52.242;20.940;2024-01-27T06:37:06;4.20;99.90
33594;DHT22;19920;52.242;20.940;2024-01-27T06:39:32;4.20;99.90
33594;DHT22;19920;52.242;20.940;2024-01-27T06:41:58;4.20;99.90
33594;DHT22;19920;52.242;20.940;2024-01-27T06:44:23;4.10;99.90
33594;DHT22;19920;52.242;20.940;2024-01-27T06:46:49;4.00;99.90
33594;DHT22;19920;52.242;20.940;2024-01-27T06:49:16;4.00;99.90
33594;DHT22;19920;52.242;20.940;2024-01-27T06:51:45;3.90;99.90
33594;DHT22;19920;52.242;20.940;2024-01-27T06:54:10;3.80;99.90
33594;DHT22;19920;52.242;20.940;2024-01-27T06:56:36;3.80;99.90
33594;DHT22;19920;52.242;20.940;2024-01-27T06:59:02;3.80;99.90
33594;DHT22;19920;52.242;20.940;2024-01-27T07:01:27;3.70;99.90
33594;DHT22;19920;52.242;20.940;2024-01-27T07:03:53;3.70;99.90
33594;DHT22;19920;52.242;20.940;2024-01-27T07:06:19;3.70;99.90
33594;DHT22;19920;52.242;20.940;2024-01-27T07:08:44;3.70;99.90
33594;DHT22;19920;52.242;20.940;2024-01-27T07:11:10;3.70;99.90
33594;DHT22;19920;52.242;20.940;2024-01-27T07:13:35;3.70;99.90
33594;DHT22;19920;52.242;20.940;2024-01-27T07:16:01;3.60;99.90
33594;DHT22;19920;52.242;20.940;2024-01-27T07:18:27;3.60;99.90
33594;DHT22;19920;52.242;20.940;2024-01-27T07:20:54;3.60;99.90
33594;DHT22;19920;52.242;20.940;2024-01-27T07:23:20;3.50;99.90
33594;DHT22;19920;52.242;20.940;2024-01-27T07:25:45;3.60;99.90
33594;DHT22;19920;52.242;20.940;2024-01-27T07:28:11;3.50;99.90
33594;DHT22;19920;52.242;20.940;2024-01-27T07:30:37;3.50;99.90
33594;DHT22;19920;52.242;20.940;2024-01-27T07:33:03;3.50;99.90
33594;DHT22;19920;52.242;20.940;2024-01-27T07:35:32;3.50;99.90
33594;DHT22;19920;52.242;20.940;2024-01-27T07:37:57;3.40;99.90
33594;DHT22;19920;52.242;20.940;2024-01-27T07:40:23;3.40;99.90
33594;DHT22;19920;52.242;20.940;2024-01-27T07:42:48;3.40;99.90
33594;DHT22;19920;52.242;20.940;2024-01-27T07:45:14;3.40;99.90
33594;DHT22;19920;52.242;20.940;2024-01-27T07:47:41;3.40;99.90
33594;DHT22;19920;52.242;20.940;2024-01-27T07:50:07;3.40;99.90
33594;DHT22;19920;52.242;20.940;2024-01-27T07:52:32;3.40;99.90
33594;DHT22;19920;52.242;20.940;2024-01-27T07:54:58;3.40;99.90
33594;DHT22;19920;52.242;20.940;2024-01-27T07:57:24;3.50;99.90
33594;DHT22;19920;52.242;20.940;2024-01-27T07:59:49;3.40;99.90
33594;DHT22;19920;52.242;20.940;2024-01-27T08:02:15;3.50;99.90
33594;DHT22;19920;52.242;20.940;2024-01-27T08:04:40;3.50;99.90
33594;DHT22;19920;52.242;20.940;2024-01-27T08:07:06;3.50;99.90
33594;DHT22;19920;52.242;20.940;2024-01-27T08:09:35;3.50;99.90
33594;DHT22;19920;52.242;20.940;2024-01-27T08:12:01;3.50;99.90
33594;DHT22;19920;52.242;20.940;2024-01-27T08:14:28;3.50;99.90
33594;DHT22;19920;52.242;20.940;2024-01-27T08:16:55;3.50;99.90
33594;DHT22;19920;52.242;20.940;2024-01-27T08:19:21;3.50;99.90
33594;DHT22;19920;52.242;20.940;2024-01-27T08:21:47;3.60;99.90
33594;DHT22;19920;52.242;20.940;2024-01-27T08:24:14;3.60;99.90
33594;DHT22;19920;52.242;20.940;2024-01-27T08:26:39;3.60;99.90
33594;DHT22;19920;52.242;20.940;2024-01-27T08:29:05;3.60;99.90
33594;DHT22;19920;52.242;20.940;2024-01-27T08:31:31;3.70;99.90
33594;DHT22;19920;52.242;20.940;2024-01-27T08:33:56;3.70;99.90
33594;DHT22;19920;52.242;20.940;2024-01-27T08:36:22;3.60;99.90
33594;DHT22;19920;52.242;20.940;2024-01-27T08:38:48;3.60;99.90
33594;DHT22;19920;52.242;20.940;2024-01-27T08:41:13;3.70;99.90
33594;DHT22;19920;52.242;20.940;2024-01-27T08:43:39;3.70;99.90
33594;DHT22;19920;52.242;20.940;2024-01-27T08:46:04;3.80;99.90
33594;DHT22;19920;52.242;20.940;2024-01-27T08:48:30;3.70;99.90
33594;DHT22;19920;52.242;20.940;2024-01-27T08:50:55;3.60;99.90
33594;DHT22;19920;52.242;20.940;2024-01-27T08:53:21;3.60;99.90
33594;DHT22;19920;52.242;20.940;2024-01-27T08:55:47;3.60;99.90
33594;DHT22;19920;52.242;20.940;2024-01-27T08:58:12;3.70;99.90
33594;DHT22;19920;52.242;20.940;2024-01-27T09:00:38;3.60;99.90
33594;DHT22;19920;52.242;20.940;2024-01-27T09:03:03;3.70;99.90
33594;DHT22;19920;52.242;20.940;2024-01-27T09:05:29;3.70;99.90
33594;DHT22;19920;52.242;20.940;2024-01-27T09:07:54;3.70;99.90
33594;DHT22;19920;52.242;20.940;2024-01-27T09:10:20;3.60;99.90
33594;DHT22;19920;52.242;20.940;2024-01-27T09:12:46;3.60;99.90
33594;DHT22;19920;52.242;20.940;2024-01-27T09:15:11;3.60;99.90
33594;DHT22;19920;52.242;20.940;2024-01-27T09:17:37;3.70;99.90
33594;DHT22;19920;52.242;20.940;2024-01-27T09:20:03;3.80;99.90
33594;DHT22;19920;52.242;20.940;2024-01-27T09:22:28;3.70;99.90
33594;DHT22;19920;52.242;20.940;2024-01-27T09:24:54;3.80;99.90
33594;DHT22;19920;52.242;20.940;2024-01-27T09:27:20;3.80;99.90
33594;DHT22;19920;52.242;20.940;2024-01-27T09:29:46;3.90;99.90
33594;DHT22;19920;52.242;20.940;2024-01-27T09:32:11;3.90;99.90
33594;DHT22;19920;52.242;20.940;2024-01-27T09:34:37;3.90;99.90
33594;DHT22;19920;52.242;20.940;2024-01-27T09:37:03;3.90;99.90
33594;DHT22;19920;52.242;20.940;2024-01-27T09:39:28;3.90;99.90
33594;DHT22;19920;52.242;20.940;2024-01-27T09:41:54;3.90;99.90
33594;DHT22;19920;52.242;20.940;2024-01-27T09:44:21;3.90;99.90
33594;DHT22;19920;52.242;20.940;2024-01-27T09:46:47;3.90;99.90
33594;DHT22;19920;52.242;20.940;2024-01-27T09:49:14;3.90;99.90
33594;DHT22;19920;52.242;20.940;2024-01-27T09:51:43;3.90;99.90
33594;DHT22;19920;52.242;20.940;2024-01-27T09:54:09;4.00;99.90
33594;DHT22;19920;52.242;20.940;2024-01-27T09:56:34;4.00;99.90
33594;DHT22;19920;52.242;20.940;2024-01-27T09:59:01;4.00;99.90
33594;DHT22;19920;52.242;20.940;2024-01-27T10:01:27;4.00;99.90
33594;DHT22;19920;52.242;20.940;2024-01-27T10:03:54;4.10;99.90
33594;DHT22;19920;52.242;20.940;2024-01-27T10:06:23;4.10;99.90
33594;DHT22;19920;52.242;20.940;2024-01-27T10:08:54;4.00;99.90
33594;DHT22;19920;52.242;20.940;2024-01-27T10:11:20;4.00;99.90
33594;DHT22;19920;52.242;20.940;2024-01-27T10:13:54;4.00;99.90
33594;DHT22;19920;52.242;20.940;2024-01-27T10:16:21;3.90;99.90
33594;DHT22;19920;52.242;20.940;2024-01-27T10:18:46;3.90;99.90
33594;DHT22;19920;52.242;20.940;2024-01-27T10:21:18;3.90;99.90
33594;DHT22;19920;52.242;20.940;2024-01-27T10:23:46;3.90;99.90
33594;DHT22;19920;52.242;20.940;2024-01-27T10:26:12;3.90;99.90
33594;DHT22;19920;52.242;20.940;2024-01-27T10:28:37;3.90;99.90
33594;DHT22;19920;52.242;20.940;2024-01-27T10:31:10;3.90;99.90
33594;DHT22;19920;52.242;20.940;2024-01-27T10:33:35;3.90;99.90
33594;DHT22;19920;52.242;20.940;2024-01-27T10:36:01;3.90;99.90
33594;DHT22;19920;52.242;20.940;2024-01-27T10:38:38;4.00;99.90
33594;DHT22;19920;52.242;20.940;2024-01-27T10:41:08;4.00;99.90
33594;DHT22;19920;52.242;20.940;2024-01-27T10:43:36;4.10;99.90
33594;DHT22;19920;52.242;20.940;2024-01-27T10:46:05;4.10;99.90
33594;DHT22;19920;52.242;20.940;2024-01-27T10:48:35;4.00;99.90
33594;DHT22;19920;52.242;20.940;2024-01-27T10:51:08;4.10;99.90
33594;DHT22;19920;52.242;20.940;2024-01-27T10:53:35;4.00;99.90
33594;DHT22;19920;52.242;20.940;2024-01-27T10:56:03;4.00;99.90
33594;DHT22;19920;52.242;20.940;2024-01-27T10:58:33;4.00;99.90
33594;DHT22;19920;52.242;20.940;2024-01-27T11:01:07;4.00;99.90
33594;DHT22;19920;52.242;20.940;2024-01-27T11:03:38;3.90;99.90
33594;DHT22;19920;52.242;20.940;2024-01-27T11:06:06;3.90;99.90
33594;DHT22;19920;52.242;20.940;2024-01-27T11:08:33;3.90;99.90
33594;DHT22;19920;52.242;20.940;2024-01-27T11:10:59;3.90;99.90
33594;DHT22;19920;52.242;20.940;2024-01-27T11:13:25;3.90;99.90
33594;DHT22;19920;52.242;20.940;2024-01-27T11:15:53;4.00;99.90
33594;DHT22;19920;52.242;20.940;2024-01-27T11:18:19;3.90;99.90
33594;DHT22;19920;52.242;20.940;2024-01-27T11:20:45;3.90;99.90
33594;DHT22;19920;52.242;20.940;2024-01-27T11:23:12;3.90;99.90
33594;DHT22;19920;52.242;20.940;2024-01-27T11:25:40;3.90;99.90
33594;DHT22;19920;52.242;20.940;2024-01-27T11:28:13;3.90;99.90
33594;DHT22;19920;52.242;20.940;2024-01-27T11:30:39;3.90;99.90
33594;DHT22;19920;52.242;20.940;2024-01-27T11:33:05;3.80;99.90
33594;DHT22;19920;52.242;20.940;2024-01-27T11:35:31;3.90;99.90
33594;DHT22;19920;52.242;20.940;2024-01-27T11:37:57;3.90;99.90
33594;DHT22;19920;52.242;20.940;2024-01-27T11:40:23;3.90;99.90
33594;DHT22;19920;52.242;20.940;2024-01-27T11:42:58;4.00;99.90
33594;DHT22;19920;52.242;20.940;2024-01-27T11:45:24;4.00;99.90
33594;DHT22;19920;52.242;20.940;2024-01-27T11:47:50;3.90;99.90
33594;DHT22;19920;52.242;20.940;2024-01-27T11:50:19;3.90;99.90
33594;DHT22;19920;52.242;20.940;2024-01-27T11:52:45;3.90;99.90
33594;DHT22;19920;52.242;20.940;2024-01-27T11:55:11;3.90;99.90
33594;DHT22;19920;52.242;20.940;2024-01-27T11:57:37;3.90;99.90
33594;DHT22;19920;52.242;20.940;2024-01-27T12:00:03;3.90;99.90
33594;DHT22;19920;52.242;20.940;2024-01-27T12:02:29;3.90;99.90
33594;DHT22;19920;52.242;20.940;2024-01-27T12:04:55;3.80;99.90
33594;DHT22;19920;52.242;20.940;2024-01-27T12:07:21;3.80;99.90
33594;DHT22;19920;52.242;20.940;2024-01-27T12:09:51;3.80;99.90
33594;DHT22;19920;52.242;20.940;2024-01-27T12:12:16;3.80;99.90
33594;DHT22;19920;52.242;20.940;2024-01-27T12:14:46;3.80;99.90
33594;DHT22;19920;52.242;20.940;2024-01-27T12:17:12;3.80;99.90
33594;DHT22;19920;52.242;20.940;2024-01-27T12:19:39;3.80;99.90
33594;DHT22;19920;52.242;20.940;2024-01-27T12:22:05;3.80;99.90
33594;DHT22;19920;52.242;20.940;2024-01-27T12:24:45;3.80;99.90
33594;DHT22;19920;52.242;20.940;2024-01-27T12:27:11;3.80;99.90
33594;DHT22;19920;52.242;20.940;2024-01-27T12:29:37;3.80;99.90
33594;DHT22;19920;52.242;20.940;2024-01-27T12:32:02;3.90;99.90
33594;DHT22;19920;52.242;20.940;2024-01-27T12:34:28;3.90;99.90
33594;DHT22;19920;52.242;20.940;2024-01-27T12:36:54;3.80;99.90
33594;DHT22;19920;52.242;20.940;2024-01-27T12:39:20;3.80;99.90
33594;DHT22;19920;52.242;20.940;2024-01-27T12:41:46;3.80;99.90
33594;DHT22;19920;52.242;20.940;2024-01-27T12:44:12;3.90;99.90
33594;DHT22;19920;52.242;20.940;2024-01-27T12:46:37;3.90;99.90
33594;DHT22;19920;52.242;20.940;2024-01-27T12:49:03;3.90;99.90
33594;DHT22;19920;52.242;20.940;2024-01-27T12:51:28;3.90;99.90
33594;DHT22;19920;52.242;20.940;2024-01-27T12:53:54;3.90;99.90
33594;DHT22;19920;52.242;20.940;2024-01-27T12:56:19;3.90;99.90
33594;DHT22;19920;52.242;20.940;2024-01-27T12:58:45;3.90;99.90
33594;DHT22;19920;52.242;20.940;2024-01-27T13:01:11;3.90;99.90
33594;DHT22;19920;52.242;20.940;2024-01-27T13:03:36;4.00;99.90
33594;DHT22;19920;52.242;20.940;2024-01-27T13:06:02;4.10;99.90
33594;DHT22;19920;52.242;20.940;2024-01-27T13:08:28;4.10;99.90
33594;DHT22;19920;52.242;20.940;2024-01-27T13:10:54;4.20;99.90
33594;DHT22;19920;52.242;20.940;2024-01-27T13:13:20;4.20;99.90
33594;DHT22;19920;52.242;20.940;2024-01-27T13:15:45;4.20;99.90
33594;DHT22;19920;52.242;20.940;2024-01-27T13:18:11;4.20;99.90
33594;DHT22;19920;52.242;20.940;2024-01-27T13:20:37;4.20;99.90
33594;DHT22;19920;52.242;20.940;2024-01-27T13:23:03;4.20;99.90
33594;DHT22;19920;52.242;20.940;2024-01-27T13:25:28;4.20;99.90
33594;DHT22;19920;52.242;20.940;2024-01-27T13:27:54;4.20;99.90
33594;DHT22;19920;52.242;20.940;2024-01-27T13:30:21;4.30;99.90
33594;DHT22;19920;52.242;20.940;2024-01-27T13:32:46;4.30;99.90
33594;DHT22;19920;52.242;20.940;2024-01-27T13:35:12;4.30;99.90
33594;DHT22;19920;52.242;20.940;2024-01-27T13:37:38;4.30;99.90
33594;DHT22;19920;52.242;20.940;2024-01-27T13:40:05;4.30;99.90
33594;DHT22;19920;52.242;20.940;2024-01-27T13:42:33;4.30;99.90
33594;DHT22;19920;52.242;20.940;2024-01-27T13:44:59;4.40;99.90
33594;DHT22;19920;52.242;20.940;2024-01-27T13:47:24;4.30;99.90
33594;DHT22;19920;52.242;20.940;2024-01-27T13:49:50;4.30;99.90
33594;DHT22;19920;52.242;20.940;2024-01-27T13:52:16;4.30;99.90
33594;DHT22;19920;52.242;20.940;2024-01-27T13:54:41;4.30;99.90
33594;DHT22;19920;52.242;20.940;2024-01-27T13:57:07;4.30;99.90
33594;DHT22;19920;52.242;20.940;2024-01-27T13:59:34;4.30;99.90
33594;DHT22;19920;52.242;20.940;2024-01-27T14:02:00;4.20;99.90
33594;DHT22;19920;52.242;20.940;2024-01-27T14:04:26;4.20;99.90
33594;DHT22;19920;52.242;20.940;2024-01-27T14:06:52;4.10;99.90
33594;DHT22;19920;52.242;20.940;2024-01-27T14:09:22;4.10;99.90
33594;DHT22;19920;52.242;20.940;2024-01-27T14:11:47;4.10;99.90
33594;DHT22;19920;52.242;20.940;2024-01-27T14:14:13;4.10;99.90
33594;DHT22;19920;52.242;20.940;2024-01-27T14:16:39;4.20;99.90
33594;DHT22;19920;52.242;20.940;2024-01-27T14:19:05;4.10;99.90
33594;DHT22;19920;52.242;20.940;2024-01-27T14:21:31;4.10;99.90
33594;DHT22;19920;52.242;20.940;2024-01-27T14:23:57;4.00;99.90
33594;DHT22;19920;52.242;20.940;2024-01-27T14:26:28;4.00;99.90
33594;DHT22;19920;52.242;20.940;2024-01-27T14:28:54;4.00;99.90
33594;DHT22;19920;52.242;20.940;2024-01-27T14:31:20;4.00;99.90
33594;DHT22;19920;52.242;20.940;2024-01-27T14:33:46;3.90;99.90
33594;DHT22;19920;52.242;20.940;2024-01-27T14:36:12;4.00;99.90
33594;DHT22;19920;52.242;20.940;2024-01-27T14:38:38;4.00;99.90
33594;DHT22;19920;52.242;20.940;2024-01-27T14:41:06;4.00;99.90
33594;DHT22;19920;52.242;20.940;2024-01-27T14:43:32;4.00;99.90
33594;DHT22;19920;52.242;20.940;2024-01-27T14:45:57;4.00;99.90
33594;DHT22;19920;52.242;20.940;2024-01-27T14:48:23;4.00;99.90
33594;DHT22;19920;52.242;20.940;2024-01-27T14:50:48;4.10;99.90
33594;DHT22;19920;52.242;20.940;2024-01-27T14:53:18;4.10;99.90
33594;DHT22;19920;52.242;20.940;2024-01-27T14:55:44;3.90;99.90
33594;DHT22;19920;52.242;20.940;2024-01-27T14:58:10;3.90;99.90
33594;DHT22;19920;52.242;20.940;2024-01-27T15:00:36;3.90;99.90
33594;DHT22;19920;52.242;20.940;2024-01-27T15:03:05;3.90;99.90
33594;DHT22;19920;52.242;20.940;2024-01-27T15:05:31;3.90;99.90
33594;DHT22;19920;52.242;20.940;2024-01-27T15:07:56;4.00;99.90
33594;DHT22;19920;52.242;20.940;2024-01-27T15:10:22;4.00;99.90
33594;DHT22;19920;52.242;20.940;2024-01-27T15:12:47;3.80;99.90
33594;DHT22;19920;52.242;20.940;2024-01-27T15:15:13;3.70;99.90
33594;DHT22;19920;52.242;20.940;2024-01-27T15:17:39;3.60;99.90
33594;DHT22;19920;52.242;20.940;2024-01-27T15:20:05;3.70;99.90
33594;DHT22;19920;52.242;20.940;2024-01-27T15:22:31;3.60;99.90